Terminal Aerodrome Forecast
Issued by NWS

Home | Current Version | Previous Version | Text Only | Print | Product List | Glossary On
Versions: 1 2 3 4 5 6 7 8 9 10 11 12 13 14 15 16 17 18 19 20 21 22 23 24
000
FTUS41 KPHI 030542
TAFPNE
TAF
KPNE 030542Z 0306/0406 34004KT P6SM BKN200
     FM031300 VRB03KT P6SM BKN100
     FM031800 15004KT P6SM OVC045
     FM032000 16004KT 4SM -SNPL OVC025
     FM032100 16006KT 1SM -PL OVC008
     FM040000 17006KT 1SM -FZRAPL OVC005 WS020/21040KT
     FM040300 20006KT 2SM RA BR OVC005 WS015/23050KT=

USA.gov is the U.S. government's official web portal to all federal, state and local government web resources and services.